CheckWX is a tool to help pilots better visualize weather data.  It is not intended as a substitute for an official pre-flight weather briefing.

14:44:16 UTC

KDUC METAR
Halliburton Field Airport
Duncan, Oklahoma, USA
Current

9 mins ago

KDUC 251435Z AUTO 30005KT 10SM CLR 16/14 A2985 RMK AO2 T01640141
Observed
Apr-25 @ 14:35 UTC
Wind
  • 300° at 5 KTS
Visibility
10 SM
Flight Rules
VFR
Cloud Levels
  • Clear skies
Temperature
16°C / 61°F
Dewpoint
14°C / 57°F
Humidity
88%
Altimeter
29.85" Hg
Pressure
1010.82 hPa
Previous

29 mins ago

KDUC 251415Z AUTO 00000KT 10SM CLR 15/14 A2985 RMK AO2 T01530138
Observed
Apr-25 @ 14:15 UTC
Visibility
10 SM
Flight Rules
VFR
Cloud Levels
  • Clear skies
Temperature
15°C / 59°F
Dewpoint
14°C / 57°F
Humidity
94%
Altimeter
29.85" Hg
Pressure
1010.82 hPa
Previous

49 mins ago

KDUC 251355Z AUTO 28003KT 10SM CLR 14/14 A2985 RMK AO2 T01430135
Observed
Apr-25 @ 13:55 UTC
Wind
  • 280° at 3 KTS
Visibility
10 SM
Flight Rules
VFR
Cloud Levels
  • Clear skies
Temperature
14°C / 57°F
Dewpoint
14°C / 57°F
Humidity
100%
Altimeter
29.85" Hg
Pressure
1010.82 hPa